Airfield :
LOGIN :

Register | Disclaimer

   EN    FR    IT 

 










Legend :    VFR   Marginal VFR   IFR   Intensive IFR   Very Intensive IFR
Visi :
Ceiling :
>= 8 km
>= 3000ft
5 to 8 km
1000 to 3000 ft
1500m to 5 km
500 to 1000 ft
800 to 1500m
200 to 500 ft
< 800m
< 200 ft
Symbols :   Thunderstorms  Fog  Heavy snow  Heavy precipitations  Wind > 20 kt
SIGMETs :     Misc.  Thunderstorms  Icing  Turbulence  Mountain Waves  Volcanic Ashes






- Airport Elevation : 3 ft
- IATA code : DHR


EHKD - Den Helder De Kooy

CURRENT METAR :
  • 201325Z AUTO 20025KT 9999 FEW015CB BKN018 OVC022 09/06 Q0991 REDZ WHT TEMPO 21025G40KT BKN020

EXPIRED METARs :
  • 201255Z AUTO 20026G36KT 170V230 9999 OVC019 09/05 Q0992 WHT TEMPO 21025G40KT BKN020
  • 201225Z AUTO 20026KT 9999 -DZ OVC019 09/06 Q0992 WHT TEMPO 21025G40KT SCT015 BKN030
  • 201155Z AUTO 20027KT 9999 OVC018 09/06 Q0992 WHT TEMPO 21025G40KT SCT015 BKN030
  • 201125Z AUTO 21028G38KT 9999 OVC017 09/06 Q0993 WHT TEMPO 21025G40KT SCT015 BKN030
  • 201117Z AUTO 21028KT 180V240 9999 BKN017 BKN041 BKN046 09/05 Q0993 WHT TEMPO 21025G40KT SCT015 BKN030
  • 201110Z AUTO 21027G38KT 180V240 9999 FEW018 BKN031 BKN045 09/06 Q0993 BLU TEMPO 21025G40KT SCT015 BKN030
  • 201101Z AUTO 21027G41KT 180V240 9999 FEW018 OVC032 09/06 Q0993 BLU TEMPO 21025G35KT

TAF TAF EHKD
Valid from the 20 at 10:00 until the 20 at 22:00 UTC


200911Z 2010/2022 21025G35KT 9999 FEW012 SCT015 BKN020
BECMG 2013/2015 SCT020 BKN030



MET'MAP, your aeronautical weather chart ! - Copyright ORBIFLY December 2007 - Disclaimer

ORBIFLY MET'MAP TEAM :

Programming & Development : Alexandra Zaïnal
Concept & original design : Baudouin d'Aumeries
Assistance for programming : Marc-Olivier Méhu
Technical & hardware support : Manuel Goepfert

Contact : metmap@orbifly.com




SOURCES & CREDITS :

   NOAA